Aviation Digital Data Service (ADDS)

Output produced by METARs form (2015 UTC 23 January 2019)
found at http://www.aviationweather.gov/metar/data/
 
Forecast for: PGUA (MARIANA/ANDERSEN, GU, US)
Text: TAF PGUA 231800Z 2318/2424 09012KT 9999 SCT015 QNH2980INS
Forecast period: 1800 UTC 23 January 2019 to 0000 UTC 25 January 2019
Forecast type: FROM: standard forecast or significant change
Winds: from the E (90 degrees) at 14 MPH (12 knots; 6.2 m/s)
Visibility: 6 or more miles 10+ km)
Ceiling: at least 12,000 feet AGL
Clouds: scattered clouds at 1500 feet AGL
Weather: no significant weather forecast for this period
Text: TEMPO 2318/2322 8000 -SHRA BKN015 TX29/2403Z TN24/2319Z
Forecast period: 1800 to 2200 UTC 23 January 2019
Forecast type: TEMPORARY: The following changes expected for less than half the time period
Visibility: 5 miles (8 km)
Ceiling: 1500 feet AGL
Clouds: broken clouds at 1500 feet AGL
Weather: -SHRA  (light rain showers)